createdAt,value
2022-11-07T00:01:53.702Z,6.43
2022-11-07T00:04:21.934Z,6.57
2022-11-07T00:06:50.076Z,6.37
2022-11-07T00:09:18.285Z,6.27
2022-11-07T00:11:46.424Z,6.10
2022-11-07T00:14:14.770Z,6.20
2022-11-07T00:16:45.015Z,6.40
2022-11-07T00:19:15.354Z,6.40
2022-11-07T00:21:43.838Z,6.23
2022-11-07T00:24:12.208Z,6.17
2022-11-07T00:26:40.328Z,6.53
2022-11-07T00:29:08.577Z,7.13
2022-11-07T00:31:36.714Z,7.07
2022-11-07T00:34:06.176Z,6.83
2022-11-07T00:36:34.356Z,6.83
2022-11-07T00:39:02.437Z,6.97
2022-11-07T00:41:30.552Z,7.00
2022-11-07T00:43:58.672Z,7.30
2022-11-07T00:46:27.116Z,7.63
2022-11-07T00:48:55.242Z,8.17
2022-11-07T00:51:26.289Z,7.47
2022-11-07T00:53:54.680Z,8.13
2022-11-07T00:56:24.924Z,7.97
2022-11-07T00:58:56.888Z,8.00
2022-11-07T01:01:27.313Z,8.60
2022-11-07T01:04:14.145Z,7.97
2022-11-07T01:06:45.300Z,8.50
2022-11-07T01:09:16.235Z,9.43
2022-11-07T01:11:45.176Z,10.30
2022-11-07T01:14:14.444Z,9.57
2022-11-07T01:16:43.056Z,9.83
2022-11-07T01:19:11.791Z,9.90
2022-11-07T01:21:40.893Z,9.97
2022-11-07T01:24:12.542Z,9.80
2022-11-07T01:26:42.460Z,10.27
2022-11-07T01:29:10.748Z,9.90
2022-11-07T01:31:38.867Z,9.93
2022-11-07T01:34:07.025Z,9.67
2022-11-07T01:36:35.330Z,9.33
2022-11-07T01:39:03.982Z,9.37
2022-11-07T01:41:35.836Z,9.37
2022-11-07T01:44:25.859Z,9.23
2022-11-07T01:46:58.600Z,9.00
2022-11-07T01:49:32.155Z,8.73
2022-11-07T01:52:05.076Z,8.77
2022-11-07T01:54:38.410Z,8.83
2022-11-07T01:57:10.748Z,8.60
2022-11-07T01:59:40.012Z,8.73
2022-11-07T02:02:09.160Z,7.87
2022-11-07T02:04:38.415Z,8.30
2022-11-07T02:07:10.792Z,7.67
2022-11-07T02:09:39.029Z,9.30
2022-11-07T02:12:09.238Z,9.10
2022-11-07T02:14:37.311Z,8.93
2022-11-07T02:17:06.190Z,9.40
2022-11-07T02:19:37.992Z,9.30
2022-11-07T02:22:15.795Z,8.90
2022-11-07T02:24:45.884Z,9.23
2022-11-07T02:27:17.306Z,8.90
2022-11-07T02:29:48.396Z,9.23
2022-11-07T02:32:16.452Z,9.43
2022-11-07T02:34:44.807Z,8.90
2022-11-07T02:37:23.272Z,8.93
2022-11-07T02:39:53.081Z,9.03
2022-11-07T02:42:21.278Z,9.50
2022-11-07T02:44:49.658Z,9.47
2022-11-07T02:47:18.085Z,9.53
2022-11-07T02:49:46.135Z,10.67
2022-11-07T02:52:14.236Z,10.57
2022-11-07T02:54:42.250Z,10.40
2022-11-07T02:57:11.677Z,11.80
2022-11-07T02:59:39.703Z,11.67
2022-11-07T03:02:07.917Z,12.40
2022-11-07T03:04:36.042Z,12.03
2022-11-07T03:07:04.123Z,11.80
2022-11-07T03:09:32.171Z,12.33
2022-11-07T03:12:00.254Z,13.57
2022-11-07T03:14:29.706Z,12.53
2022-11-07T03:16:57.797Z,13.03
2022-11-07T03:19:25.889Z,13.87
2022-11-07T03:21:54.272Z,12.60
2022-11-07T03:24:22.420Z,12.27
2022-11-07T03:26:50.479Z,13.17
2022-11-07T03:29:18.601Z,13.67
2022-11-07T03:31:48.088Z,13.00
2022-11-07T03:34:16.204Z,13.70
2022-11-07T03:36:44.286Z,12.53
2022-11-07T03:39:12.421Z,12.20
2022-11-07T03:41:40.489Z,12.13
2022-11-07T03:44:09.088Z,11.80
2022-11-07T03:46:37.171Z,11.73
2022-11-07T03:49:06.725Z,11.13
2022-11-07T03:51:34.801Z,11.17
2022-11-07T03:54:02.952Z,10.73
2022-11-07T03:56:31.018Z,10.10
2022-11-07T03:58:59.159Z,11.10
2022-11-07T04:01:27.408Z,10.50
2022-11-07T04:03:56.430Z,10.40
2022-11-07T04:06:26.062Z,9.90
2022-11-07T04:08:54.255Z,9.97
2022-11-07T04:11:39.797Z,10.53
2022-11-07T04:14:25.319Z,10.60
2022-11-07T04:17:11.043Z,10.03
2022-11-07T04:19:39.147Z,9.87
2022-11-07T04:22:08.782Z,9.80
2022-11-07T04:24:40.316Z,10.07
2022-11-07T04:27:30.736Z,9.50
2022-11-07T04:29:58.842Z,9.33
2022-11-07T04:32:27.149Z,8.93
2022-11-07T04:34:55.252Z,8.90
2022-11-07T04:37:24.703Z,8.70
2022-11-07T04:39:52.795Z,8.30
2022-11-07T04:42:20.872Z,8.67
2022-11-07T04:44:48.962Z,8.17
2022-11-07T04:47:17.019Z,8.30
2022-11-07T04:49:45.133Z,8.23
2022-11-07T04:52:13.905Z,8.40
2022-11-07T04:54:43.382Z,8.30
2022-11-07T04:57:11.453Z,7.37
2022-11-07T04:59:39.552Z,7.80
2022-11-07T05:02:07.771Z,8.03
2022-11-07T05:04:36.254Z,8.63
2022-11-07T05:07:04.468Z,7.93
2022-11-07T05:09:33.091Z,7.60
2022-11-07T05:12:03.102Z,8.50
2022-11-07T05:14:31.901Z,7.40
2022-11-07T05:17:00.208Z,7.00
2022-11-07T05:19:28.335Z,7.27
2022-11-07T05:22:10.324Z,8.50
2022-11-07T05:24:38.695Z,6.80
2022-11-07T05:27:08.231Z,7.50
2022-11-07T05:29:38.164Z,7.57
2022-11-07T05:32:06.893Z,7.90
2022-11-07T05:34:34.995Z,7.63
2022-11-07T05:37:03.119Z,8.07
2022-11-07T05:39:31.998Z,8.20
2022-11-07T05:42:01.778Z,8.77
2022-11-07T05:44:31.568Z,8.13
2022-11-07T05:47:00.507Z,9.13
2022-11-07T05:49:28.639Z,9.13
2022-11-07T05:51:57.772Z,7.87
2022-11-07T05:54:28.015Z,7.63
2022-11-07T05:56:59.134Z,7.27
2022-11-07T05:59:27.552Z,6.97
2022-11-07T06:01:57.172Z,7.73
2022-11-07T06:04:25.519Z,7.60
2022-11-07T06:06:53.622Z,7.13
2022-11-07T06:09:21.689Z,7.50
2022-11-07T06:11:49.825Z,6.97
2022-11-07T06:14:18.054Z,7.80
2022-11-07T06:16:46.123Z,7.70
2022-11-07T06:19:15.594Z,7.20
2022-11-07T06:21:43.680Z,7.23
2022-11-07T06:24:15.399Z,7.80
2022-11-07T06:26:43.710Z,8.43
2022-11-07T06:29:11.784Z,7.37
2022-11-07T06:31:39.866Z,6.90
2022-11-07T06:34:07.961Z,7.43
2022-11-07T06:36:37.460Z,7.00
2022-11-07T06:39:05.643Z,7.57
2022-11-07T06:41:33.772Z,5.97
2022-11-07T06:44:02.051Z,6.57
2022-11-07T06:46:30.168Z,6.20
2022-11-07T06:48:58.275Z,7.20
2022-11-07T06:51:26.393Z,6.30
2022-11-07T06:53:55.880Z,6.33
2022-11-07T06:56:24.040Z,5.80
2022-11-07T06:58:52.416Z,7.37
2022-11-07T07:01:20.557Z,6.17
2022-11-07T07:03:48.711Z,6.23
2022-11-07T07:06:18.215Z,6.37
2022-11-07T07:08:47.005Z,5.50
2022-11-07T07:11:17.093Z,5.90
2022-11-07T07:13:45.204Z,6.17
2022-11-07T07:16:13.360Z,5.63
2022-11-07T07:18:41.454Z,5.00
2022-11-07T07:21:11.368Z,5.10
2022-11-07T07:23:40.033Z,4.80
2022-11-07T07:26:11.131Z,5.07
2022-11-07T07:28:40.792Z,5.43
2022-11-07T07:31:11.561Z,5.00
2022-11-07T07:33:39.668Z,4.53
2022-11-07T07:36:09.080Z,4.47
2022-11-07T07:38:37.648Z,4.43
2022-11-07T07:41:06.382Z,5.17
2022-11-07T07:43:35.352Z,4.13
2022-11-07T07:46:07.051Z,3.90
2022-11-07T07:48:35.550Z,4.00
2022-11-07T07:51:04.001Z,3.97
2022-11-07T07:53:32.248Z,4.20
2022-11-07T07:56:02.857Z,4.10
2022-11-07T07:58:30.982Z,3.43
2022-11-07T08:00:59.196Z,3.63
2022-11-07T08:03:35.219Z,4.27
2022-11-07T08:06:12.743Z,3.93
2022-11-07T08:08:40.912Z,3.40
2022-11-07T08:11:09.926Z,4.20
2022-11-07T08:13:38.083Z,3.77
2022-11-07T08:16:08.702Z,3.73
2022-11-07T08:18:39.943Z,3.80
2022-11-07T08:21:08.514Z,3.03
2022-11-07T08:23:37.072Z,3.43
2022-11-07T08:26:05.775Z,4.33
2022-11-07T08:28:36.103Z,3.90
2022-11-07T08:31:06.815Z,3.23
2022-11-07T08:33:35.223Z,3.10
2022-11-07T08:36:06.707Z,3.10
2022-11-07T08:38:36.810Z,3.33
2022-11-07T08:41:05.630Z,3.00
2022-11-07T08:43:33.788Z,3.47
2022-11-07T08:46:01.967Z,3.30
2022-11-07T08:48:30.070Z,3.03
2022-11-07T08:50:59.439Z,3.57
2022-11-07T08:53:29.101Z,3.33
2022-11-07T08:56:02.959Z,3.23
2022-11-07T08:58:31.456Z,3.20
2022-11-07T09:01:00.274Z,3.10
2022-11-07T09:03:47.345Z,2.90
2022-11-07T09:06:16.105Z,3.30
2022-11-07T09:08:45.628Z,2.87
2022-11-07T09:11:15.974Z,2.63
2022-11-07T09:13:44.251Z,3.00
2022-11-07T09:16:12.675Z,2.90
2022-11-07T09:18:40.819Z,3.53
2022-11-07T09:21:08.918Z,3.47
2022-11-07T09:23:37.186Z,3.67
2022-11-07T09:26:07.184Z,3.33
2022-11-07T09:28:35.783Z,3.53
2022-11-07T09:31:05.704Z,3.40
2022-11-07T09:33:34.100Z,3.10
2022-11-07T09:36:02.972Z,3.30
2022-11-07T09:38:31.329Z,3.70
2022-11-07T09:41:07.252Z,3.30
2022-11-07T09:44:07.506Z,3.40
2022-11-07T09:46:49.853Z,3.43
2022-11-07T09:49:22.157Z,10.67
2022-11-07T09:51:55.148Z,4.73
2022-11-07T09:54:27.619Z,5.37
2022-11-07T09:57:00.134Z,4.30
2022-11-07T09:59:37.271Z,3.07
2022-11-07T10:02:12.949Z,4.40
2022-11-07T10:04:41.123Z,3.40
2022-11-07T10:07:18.626Z,3.63
2022-11-07T10:09:51.460Z,4.07
2022-11-07T10:12:43.181Z,3.40
2022-11-07T10:15:18.446Z,4.73
2022-11-07T10:17:54.858Z,4.50
2022-11-07T10:20:34.438Z,4.37
2022-11-07T10:23:21.543Z,4.13
2022-11-07T10:25:56.222Z,5.63
2022-11-07T10:28:27.441Z,8.07
2022-11-07T10:30:59.497Z,4.50
2022-11-07T10:33:39.201Z,6.50
2022-11-07T10:36:14.473Z,3.87
2022-11-07T10:38:44.928Z,3.77
2022-11-07T10:41:16.592Z,4.17
2022-11-07T10:43:49.897Z,4.50
2022-11-07T10:46:21.857Z,3.50
2022-11-07T10:48:58.386Z,4.50
2022-11-07T10:51:37.076Z,4.50
2022-11-07T10:54:06.349Z,4.17
2022-11-07T10:56:45.647Z,3.67
2022-11-07T10:59:21.468Z,4.23
2022-11-07T11:01:53.184Z,4.37
2022-11-07T11:04:25.297Z,4.43
2022-11-07T11:07:03.967Z,5.13
2022-11-07T11:09:34.340Z,3.90
2022-11-07T11:12:06.654Z,4.37
2022-11-07T11:14:36.136Z,4.80
2022-11-07T11:17:04.610Z,4.13
2022-11-07T11:19:41.143Z,3.60
2022-11-07T11:22:17.564Z,3.70
2022-11-07T11:24:45.729Z,4.30
2022-11-07T11:27:18.320Z,3.83
2022-11-07T11:29:55.451Z,3.63
2022-11-07T11:32:28.337Z,3.53
2022-11-07T11:35:12.513Z,3.50
2022-11-07T11:37:45.664Z,3.00
2022-11-07T11:40:18.332Z,3.63
2022-11-07T11:42:58.557Z,3.30
2022-11-07T11:45:36.501Z,3.30
2022-11-07T11:48:16.851Z,3.23
2022-11-07T11:50:47.101Z,3.10
2022-11-07T11:53:17.801Z,2.87
2022-11-07T11:55:54.328Z,2.73
2022-11-07T11:58:42.284Z,2.97
2022-11-07T12:04:27.251Z,2.77
2022-11-07T12:07:01.112Z,3.17
2022-11-07T12:09:37.861Z,2.87
2022-11-07T12:12:16.602Z,2.70
2022-11-07T12:15:10.227Z,3.17
2022-11-07T12:17:43.927Z,3.10
2022-11-07T12:20:21.452Z,2.90
2022-11-07T12:23:00.134Z,2.73
2022-11-07T12:25:33.940Z,2.87
2022-11-07T12:28:17.174Z,2.50
2022-11-07T12:30:54.309Z,3.30
2022-11-07T12:33:32.680Z,2.30
2022-11-07T12:36:03.997Z,3.00
2022-11-07T12:38:54.848Z,3.20
2022-11-07T12:41:33.063Z,2.60
2022-11-07T12:44:11.805Z,2.47
2022-11-07T12:46:47.204Z,2.60
2022-11-07T12:49:49.703Z,2.93
2022-11-07T12:52:30.777Z,2.63
2022-11-07T12:55:03.321Z,2.80
2022-11-07T12:57:34.166Z,2.40
2022-11-07T13:00:06.518Z,3.20
2022-11-07T13:02:57.710Z,2.50
2022-11-07T13:05:47.435Z,2.57
2022-11-07T13:08:22.200Z,3.30
2022-11-07T13:10:57.014Z,3.23
2022-11-07T13:13:31.387Z,2.37
2022-11-07T13:16:15.518Z,2.83
2022-11-07T13:18:43.954Z,2.70
2022-11-07T13:21:13.596Z,2.63
2022-11-07T13:23:41.765Z,2.57
2022-11-07T13:26:44.682Z,2.50
2022-11-07T13:28:59.439Z,2.43
2022-11-07T13:31:36.743Z,2.60
2022-11-07T13:34:12.955Z,2.77
2022-11-07T13:36:42.715Z,2.80
2022-11-07T13:39:13.164Z,3.13
2022-11-07T13:41:41.989Z,2.53
2022-11-07T13:44:21.515Z,2.47
2022-11-07T13:46:53.369Z,2.27
2022-11-07T13:49:24.748Z,3.33
2022-11-07T13:51:56.516Z,3.13
2022-11-07T13:54:28.399Z,2.77
2022-11-07T13:57:00.608Z,2.37
2022-11-07T13:59:40.490Z,2.63
2022-11-07T14:02:19.206Z,2.40
2022-11-07T14:05:14.920Z,2.80
2022-11-07T14:07:44.059Z,2.53
2022-11-07T14:10:23.233Z,2.57
2022-11-07T14:12:54.245Z,2.53
2022-11-07T14:15:22.332Z,2.30
2022-11-07T14:17:50.476Z,2.40
2022-11-07T14:20:20.865Z,2.57
2022-11-07T14:22:52.997Z,2.90
2022-11-07T14:25:25.720Z,3.13
2022-11-07T14:27:54.253Z,3.00
2022-11-07T14:30:24.282Z,2.87
2022-11-07T14:32:54.300Z,3.40
2022-11-07T14:35:25.734Z,3.00
2022-11-07T14:37:55.415Z,2.50
2022-11-07T14:40:24.355Z,2.40
2022-11-07T14:42:53.408Z,2.40
2022-11-07T14:45:56.609Z,2.90
2022-11-07T14:48:14.396Z,2.80
2022-11-07T14:50:43.239Z,2.50
2022-11-07T14:53:20.445Z,2.73
2022-11-07T14:55:53.565Z,2.70
2022-11-07T14:58:24.820Z,2.63
2022-11-07T15:00:54.402Z,2.67
2022-11-07T15:03:24.849Z,9.97
2022-11-07T15:05:53.477Z,3.93
2022-11-07T15:08:31.608Z,2.83
2022-11-07T15:11:08.284Z,2.97
2022-11-07T15:13:36.840Z,3.90
2022-11-07T15:16:07.550Z,3.03
2022-11-07T15:18:40.001Z,2.93
2022-11-07T15:21:11.135Z,4.27
2022-11-07T15:23:40.618Z,2.60
2022-11-07T15:26:13.677Z,2.70
2022-11-07T15:28:46.992Z,2.43
2022-11-07T15:31:23.892Z,3.10
2022-11-07T15:33:52.585Z,2.70
2022-11-07T15:36:20.789Z,3.63
2022-11-07T15:38:51.124Z,3.10
2022-11-07T15:41:19.671Z,2.57
2022-11-07T15:43:47.735Z,2.77
2022-11-07T15:46:25.559Z,3.10
2022-11-07T15:48:53.923Z,3.33
2022-11-07T15:51:22.028Z,2.83
2022-11-07T15:53:51.546Z,2.40
2022-11-07T15:56:23.198Z,3.33
2022-11-07T15:58:52.255Z,2.80
2022-11-07T16:01:20.450Z,3.97
2022-11-07T16:03:48.574Z,2.77
2022-11-07T16:06:22.013Z,2.27
2022-11-07T16:08:51.454Z,2.47
2022-11-07T16:11:19.557Z,2.57
2022-11-07T16:13:47.766Z,3.47
2022-11-07T16:16:21.292Z,3.77
2022-11-07T16:18:51.015Z,2.70
2022-11-07T16:21:19.772Z,4.00
2022-11-07T16:23:49.804Z,2.97
2022-11-07T16:26:27.302Z,4.63
2022-11-07T16:28:55.462Z,2.67
2022-11-07T16:31:23.604Z,2.87
2022-11-07T16:33:53.343Z,3.00
2022-11-07T16:36:24.371Z,3.23
2022-11-07T16:38:53.295Z,3.40
2022-11-07T16:41:23.479Z,3.20
2022-11-07T16:43:51.939Z,6.67
2022-11-07T16:46:22.425Z,4.80
2022-11-07T16:48:53.058Z,18.67
2022-11-07T16:51:23.032Z,9.97
2022-11-07T16:53:51.204Z,3.67
2022-11-07T16:56:32.099Z,3.47
2022-11-07T16:59:00.604Z,3.23
2022-11-07T17:01:29.768Z,3.90
2022-11-07T17:03:57.939Z,7.87
2022-11-07T17:06:29.060Z,6.03
2022-11-07T17:09:05.887Z,3.70
2022-11-07T17:11:38.402Z,3.27
2022-11-07T17:14:06.544Z,3.50
2022-11-07T17:16:36.900Z,3.97
2022-11-07T17:19:06.296Z,18.37
2022-11-07T17:21:36.404Z,5.40
2022-11-07T17:24:05.284Z,9.53
2022-11-07T17:26:36.978Z,5.93
2022-11-07T17:29:07.751Z,4.13
2022-11-07T17:31:35.924Z,3.83
2022-11-07T17:34:03.996Z,3.43
2022-11-07T17:36:37.405Z,3.90
2022-11-07T17:39:11.168Z,8.87
2022-11-07T17:41:40.367Z,4.03
2022-11-07T17:44:10.921Z,4.37
2022-11-07T17:46:42.854Z,4.83
2022-11-07T17:49:14.238Z,3.77
2022-11-07T17:51:43.208Z,4.33
2022-11-07T17:54:13.179Z,4.30
2022-11-07T17:56:41.744Z,4.87
2022-11-07T17:59:14.764Z,4.20
2022-11-07T18:01:43.584Z,4.13
2022-11-07T18:04:13.653Z,7.53
2022-11-07T18:06:43.432Z,3.80
2022-11-07T18:09:14.772Z,4.40
2022-11-07T18:11:42.968Z,4.40
2022-11-07T18:14:14.499Z,4.20
2022-11-07T18:16:42.855Z,4.30
2022-11-07T18:19:11.417Z,4.20
2022-11-07T18:21:39.536Z,4.03
2022-11-07T18:24:08.288Z,4.27
2022-11-07T18:26:38.370Z,4.30
2022-11-07T18:29:09.083Z,4.87
2022-11-07T18:31:40.389Z,3.77
2022-11-07T18:34:11.374Z,4.07
2022-11-07T18:36:41.711Z,4.03
2022-11-07T18:39:13.662Z,4.50
2022-11-07T18:41:41.866Z,3.83
2022-11-07T18:44:10.766Z,4.33
2022-11-07T18:46:40.566Z,4.13
2022-11-07T18:49:08.757Z,4.27
2022-11-07T18:51:36.902Z,4.60
2022-11-07T18:54:06.878Z,4.27
2022-11-07T18:56:35.011Z,4.20
2022-11-07T18:59:03.400Z,3.70
2022-11-07T19:01:34.016Z,3.87
2022-11-07T19:04:05.865Z,4.00
2022-11-07T19:06:34.764Z,4.17
2022-11-07T19:09:02.993Z,3.57
2022-11-07T19:11:34.168Z,4.40
2022-11-07T19:14:03.523Z,4.20
2022-11-07T19:16:31.873Z,5.03
2022-11-07T19:19:00.638Z,4.50
2022-11-07T19:21:30.086Z,4.50
2022-11-07T19:23:58.297Z,4.27
2022-11-07T19:26:26.390Z,4.43
2022-11-07T19:28:55.238Z,5.03
2022-11-07T19:31:23.479Z,4.67
2022-11-07T19:33:51.531Z,5.30
2022-11-07T19:36:21.394Z,4.90
2022-11-07T19:38:51.297Z,4.70
2022-11-07T19:41:19.832Z,5.03
2022-11-07T19:43:50.130Z,4.73
2022-11-07T19:46:20.191Z,4.37
2022-11-07T19:48:48.947Z,5.10
2022-11-07T19:51:22.098Z,4.47
2022-11-07T19:53:55.691Z,5.27
2022-11-07T19:56:24.757Z,4.97
2022-11-07T19:58:52.982Z,5.80
2022-11-07T20:01:26.896Z,5.10
2022-11-07T20:03:56.652Z,4.67
2022-11-07T20:06:27.240Z,5.40
2022-11-07T20:08:56.932Z,4.90
2022-11-07T20:11:26.401Z,5.17
2022-11-07T20:14:02.754Z,5.37
2022-11-07T20:16:32.105Z,4.70
2022-11-07T20:19:00.794Z,5.07
2022-11-07T20:21:29.224Z,4.57
2022-11-07T20:23:59.591Z,5.27
2022-11-07T20:26:31.511Z,5.00
2022-11-07T20:29:00.363Z,4.90
2022-11-07T20:31:32.700Z,4.43
2022-11-07T20:34:01.530Z,5.30
2022-11-07T20:36:31.185Z,6.17
2022-11-07T20:39:01.782Z,4.60
2022-11-07T20:41:29.903Z,4.40
2022-11-07T20:43:59.967Z,5.20
2022-11-07T20:46:28.404Z,4.77
2022-11-07T20:48:56.568Z,4.80
2022-11-07T20:51:26.299Z,4.63
2022-11-07T20:53:55.141Z,5.13
2022-11-07T20:56:26.639Z,5.73
2022-11-07T20:58:55.838Z,4.77
2022-11-07T21:01:26.486Z,5.70
2022-11-07T21:03:55.182Z,6.17
2022-11-07T21:06:23.234Z,6.70
2022-11-07T21:08:52.287Z,7.07
2022-11-07T21:11:20.389Z,6.00
2022-11-07T21:13:53.167Z,5.20
2022-11-07T21:16:22.761Z,5.13
2022-11-07T21:18:51.529Z,6.43
2022-11-07T21:21:22.601Z,5.97
2022-11-07T21:23:51.884Z,7.27
2022-11-07T21:26:22.450Z,5.83
2022-11-07T21:28:51.921Z,4.67
2022-11-07T21:31:23.924Z,6.47
2022-11-07T21:33:52.738Z,5.10
2022-11-07T21:36:23.454Z,4.43
2022-11-07T21:38:52.070Z,12.20
2022-11-07T21:41:20.166Z,4.77
2022-11-07T21:43:48.304Z,5.07
2022-11-07T21:46:20.255Z,5.40
2022-11-07T21:48:48.893Z,5.27
2022-11-07T21:51:19.113Z,4.40
2022-11-07T21:53:48.302Z,4.50
2022-11-07T21:56:18.248Z,4.90
2022-11-07T21:58:46.390Z,4.33
2022-11-07T22:01:14.506Z,4.27
2022-11-07T22:04:13.728Z,5.37
2022-11-07T22:06:35.038Z,5.03
2022-11-07T22:09:03.752Z,5.00
2022-11-07T22:11:31.909Z,6.83
2022-11-07T22:14:00.231Z,4.73
2022-11-07T22:16:28.472Z,5.40
2022-11-07T22:18:59.390Z,4.90
2022-11-07T22:21:27.776Z,5.37
2022-11-07T22:23:57.320Z,4.53
2022-11-07T22:26:27.205Z,4.47
2022-11-07T22:28:55.670Z,4.17
2022-11-07T22:31:25.183Z,6.40
2022-11-07T22:33:54.741Z,5.30
2022-11-07T22:36:25.167Z,5.00
2022-11-07T22:38:53.588Z,5.57
2022-11-07T22:41:24.608Z,3.80
2022-11-07T22:43:53.290Z,4.43
2022-11-07T22:46:23.873Z,4.30
2022-11-07T22:48:53.501Z,4.40
2022-11-07T22:51:24.927Z,4.10
2022-11-07T22:53:58.439Z,4.70
2022-11-07T22:56:27.352Z,4.53
2022-11-07T22:58:56.306Z,4.57
2022-11-07T23:01:26.769Z,4.33
2022-11-07T23:03:55.739Z,3.70
2022-11-07T23:06:26.568Z,3.83
2022-11-07T23:08:57.215Z,3.50
2022-11-07T23:14:18.448Z,3.40
2022-11-07T23:16:49.364Z,3.40
2022-11-07T23:19:20.084Z,3.67
2022-11-07T23:21:51.069Z,3.47
2022-11-07T23:24:20.901Z,3.60
2022-11-07T23:26:50.154Z,3.20
2022-11-07T23:29:20.780Z,3.70
2022-11-07T23:31:50.644Z,3.40
2022-11-07T23:34:20.816Z,3.60
2022-11-07T23:36:53.066Z,3.80
2022-11-07T23:39:24.038Z,3.27
2022-11-07T23:41:52.128Z,3.20
2022-11-07T23:44:20.284Z,3.27
2022-11-07T23:47:06.366Z,2.83
2022-11-07T23:49:52.461Z,3.00
2022-11-07T23:52:23.265Z,3.63
2022-11-07T23:55:09.363Z,3.10
2022-11-07T23:57:58.645Z,3.20
